createdAt,value
2018-09-25T00:00:26.168Z,7.66
2018-09-25T00:01:26.153Z,7.69
2018-09-25T00:02:26.169Z,7.66
2018-09-25T00:03:26.126Z,7.58
2018-09-25T00:04:26.163Z,7.60
2018-09-25T00:05:26.111Z,7.46
2018-09-25T00:06:26.091Z,7.52
2018-09-25T00:07:26.084Z,7.46
2018-09-25T00:08:26.088Z,7.43
2018-09-25T00:09:26.058Z,7.40
2018-09-25T00:10:26.175Z,7.36
2018-09-25T00:11:26.039Z,7.39
2018-09-25T00:12:26.025Z,7.28
2018-09-25T00:13:26.024Z,7.34
2018-09-25T00:14:26.030Z,7.21
2018-09-25T00:15:25.998Z,7.26
2018-09-25T00:16:26.017Z,7.28
2018-09-25T00:17:25.973Z,7.25
2018-09-25T00:18:25.968Z,7.24
2018-09-25T00:19:25.954Z,7.29
2018-09-25T00:20:25.992Z,7.21
2018-09-25T00:21:25.934Z,7.19
2018-09-25T00:22:26.713Z,7.16
2018-09-25T00:23:25.906Z,7.13
2018-09-25T00:24:25.912Z,7.07
2018-09-25T00:25:25.885Z,7.11
2018-09-25T00:26:25.897Z,7.15
2018-09-25T00:27:25.861Z,7.13
2018-09-25T00:28:25.884Z,7.13
2018-09-25T00:29:25.836Z,7.08
2018-09-25T00:30:25.837Z,7.01
2018-09-25T00:31:25.814Z,7.07
2018-09-25T00:32:25.817Z,7.08
2018-09-25T00:33:25.798Z,7.04
2018-09-25T00:34:25.869Z,7.01
2018-09-25T00:35:25.774Z,6.99
2018-09-25T00:36:25.777Z,6.93
2018-09-25T00:37:25.767Z,6.99
2018-09-25T00:38:25.747Z,6.88
2018-09-25T00:39:25.733Z,6.85
2018-09-25T00:40:25.805Z,6.82
2018-09-25T00:41:25.723Z,6.86
2018-09-25T00:42:25.703Z,6.85
2018-09-25T00:43:25.688Z,6.79
2018-09-25T00:44:25.708Z,6.78
2018-09-25T00:45:25.674Z,6.74
2018-09-25T00:46:25.685Z,6.82
2018-09-25T00:47:25.652Z,6.75
2018-09-25T00:48:25.633Z,6.75
2018-09-25T00:49:25.618Z,6.70
2018-09-25T00:50:25.627Z,6.75
2018-09-25T00:51:25.603Z,6.68
2018-09-25T00:52:25.627Z,6.67
2018-09-25T00:53:25.579Z,6.73
2018-09-25T00:54:25.566Z,6.75
2018-09-25T00:55:25.574Z,6.75
2018-09-25T00:56:25.540Z,6.65
2018-09-25T00:57:25.529Z,6.64
2018-09-25T00:58:25.570Z,6.65
2018-09-25T00:59:25.508Z,6.63
2018-09-25T01:00:25.498Z,6.61
2018-09-25T01:01:25.495Z,6.61
2018-09-25T01:02:25.543Z,6.60
2018-09-25T01:03:25.482Z,6.57
2018-09-25T01:04:25.484Z,6.65
2018-09-25T01:05:25.462Z,6.67
2018-09-25T01:06:25.432Z,6.68
2018-09-25T01:07:25.424Z,6.65
2018-09-25T01:08:25.412Z,6.67
2018-09-25T01:09:25.424Z,6.63
2018-09-25T01:10:25.434Z,6.61
2018-09-25T01:11:25.376Z,6.61
2018-09-25T01:12:25.378Z,6.67
2018-09-25T01:13:25.353Z,6.47
2018-09-25T01:14:25.341Z,6.63
2018-09-25T01:15:25.348Z,6.50
2018-09-25T01:16:25.362Z,6.47
2018-09-25T01:17:25.315Z,6.50
2018-09-25T01:18:25.296Z,6.52
2018-09-25T01:19:25.286Z,6.49
2018-09-25T01:20:25.283Z,6.49
2018-09-25T01:21:25.288Z,6.37
2018-09-25T01:22:25.309Z,6.34
2018-09-25T01:23:25.243Z,6.38
2018-09-25T01:24:25.233Z,6.42
2018-09-25T01:25:25.221Z,6.43
2018-09-25T01:26:25.208Z,6.37
2018-09-25T01:27:25.200Z,6.35
2018-09-25T01:28:25.245Z,6.32
2018-09-25T01:29:25.182Z,6.35
2018-09-25T01:30:25.172Z,6.37
2018-09-25T01:31:25.152Z,6.31
2018-09-25T01:32:25.155Z,6.34
2018-09-25T01:33:25.133Z,6.40
2018-09-25T01:34:25.170Z,6.34
2018-09-25T01:35:25.110Z,6.38
2018-09-25T01:36:25.101Z,6.38
2018-09-25T01:37:25.089Z,6.21
2018-09-25T01:38:25.076Z,6.28
2018-09-25T01:39:25.064Z,6.24
2018-09-25T01:40:25.107Z,6.28
2018-09-25T01:41:25.042Z,6.18
2018-09-25T01:42:25.032Z,6.12
2018-09-25T01:43:25.024Z,6.08
2018-09-25T01:44:25.017Z,6.09
2018-09-25T01:45:25.002Z,6.15
2018-09-25T01:46:25.031Z,6.09
2018-09-25T01:47:24.982Z,6.03
2018-09-25T01:48:24.985Z,6.05
2018-09-25T01:49:24.963Z,5.98
2018-09-25T01:50:24.947Z,6.02
2018-09-25T01:51:24.938Z,6.08
2018-09-25T01:52:24.960Z,5.98
2018-09-25T01:53:24.933Z,6.06
2018-09-25T01:54:24.916Z,6.05
2018-09-25T01:55:24.895Z,5.95
2018-09-25T01:56:24.897Z,6.06
2018-09-25T01:57:24.877Z,6.00
2018-09-25T01:58:24.943Z,5.98
2018-09-25T01:59:24.848Z,5.95
2018-09-25T02:00:24.843Z,5.98
2018-09-25T02:01:24.854Z,5.94
2018-09-25T02:02:24.832Z,5.91
2018-09-25T02:03:24.814Z,5.93
2018-09-25T02:04:24.839Z,6.03
2018-09-25T02:05:24.792Z,6.08
2018-09-25T02:06:24.772Z,5.97
2018-09-25T02:07:24.764Z,6.05
2018-09-25T02:08:24.756Z,6.05
2018-09-25T02:09:24.754Z,6.11
2018-09-25T02:10:24.771Z,5.93
2018-09-25T02:11:24.721Z,6.02
2018-09-25T02:12:24.713Z,6.02
2018-09-25T02:13:24.709Z,5.91
2018-09-25T02:14:24.680Z,5.94
2018-09-25T02:15:24.667Z,5.87
2018-09-25T02:16:24.695Z,5.93
2018-09-25T02:17:24.670Z,5.94
2018-09-25T02:18:24.639Z,5.88
2018-09-25T02:19:24.632Z,5.90
2018-09-25T02:20:24.632Z,5.85
2018-09-25T02:21:24.599Z,6.02
2018-09-25T02:22:24.626Z,5.91
2018-09-25T02:23:24.583Z,5.90
2018-09-25T02:24:24.578Z,5.97
2018-09-25T02:25:24.558Z,5.91
2018-09-25T02:26:24.558Z,5.85
2018-09-25T02:27:24.553Z,5.88
2018-09-25T02:28:24.575Z,5.84
2018-09-25T02:29:24.517Z,5.93
2018-09-25T02:30:24.506Z,5.85
2018-09-25T02:31:24.492Z,5.90
2018-09-25T02:32:24.482Z,5.84
2018-09-25T02:33:24.501Z,5.76
2018-09-25T02:34:24.490Z,5.80
2018-09-25T02:35:24.450Z,5.79
2018-09-25T02:36:24.445Z,5.73
2018-09-25T02:37:24.428Z,5.62
2018-09-25T02:38:24.417Z,5.58
2018-09-25T02:39:24.422Z,5.65
2018-09-25T02:40:24.442Z,5.59
2018-09-25T02:41:24.386Z,5.54
2018-09-25T02:42:24.368Z,5.61
2018-09-25T02:43:24.368Z,5.59
2018-09-25T02:44:24.348Z,5.54
2018-09-25T02:45:24.337Z,5.50
2018-09-25T02:46:24.392Z,5.52
2018-09-25T02:47:24.313Z,5.50
2018-09-25T02:48:24.313Z,5.54
2018-09-25T02:49:24.297Z,5.44
2018-09-25T02:50:24.292Z,5.48
2018-09-25T02:51:24.268Z,5.54
2018-09-25T02:52:24.290Z,5.47
2018-09-25T02:53:24.268Z,5.41
2018-09-25T02:54:24.238Z,5.43
2018-09-25T02:55:24.225Z,5.47
2018-09-25T02:56:24.219Z,5.41
2018-09-25T02:57:24.206Z,5.43
2018-09-25T02:58:24.227Z,5.41
2018-09-25T02:59:24.203Z,5.39
2018-09-25T03:00:24.181Z,5.48
2018-09-25T03:01:24.162Z,5.41
2018-09-25T03:02:24.151Z,5.44
2018-09-25T03:03:24.149Z,5.40
2018-09-25T03:04:24.182Z,5.40
2018-09-25T03:05:24.129Z,5.36
2018-09-25T03:06:24.102Z,5.24
2018-09-25T03:07:24.114Z,5.34
2018-09-25T03:08:24.084Z,5.27
2018-09-25T03:09:24.074Z,5.32
2018-09-25T03:10:24.098Z,5.36
2018-09-25T03:11:24.080Z,5.30
2018-09-25T03:12:24.036Z,5.27
2018-09-25T03:13:24.036Z,5.27
2018-09-25T03:14:24.021Z,5.27
2018-09-25T03:15:24.011Z,5.25
2018-09-25T03:16:24.034Z,5.34
2018-09-25T03:17:23.982Z,5.29
2018-09-25T03:18:23.984Z,5.33
2018-09-25T03:19:24.032Z,5.33
2018-09-25T03:20:24.015Z,5.34
2018-09-25T03:21:23.978Z,5.30
2018-09-25T03:22:23.985Z,5.33
2018-09-25T03:23:23.928Z,5.34
2018-09-25T03:24:23.937Z,5.36
2018-09-25T03:25:23.913Z,5.37
2018-09-25T03:26:23.888Z,5.32
2018-09-25T03:27:23.876Z,5.33
2018-09-25T03:28:23.896Z,5.33
2018-09-25T03:29:23.860Z,5.27
2018-09-25T03:30:23.843Z,5.32
2018-09-25T03:31:23.850Z,5.32
2018-09-25T03:32:23.816Z,5.32
2018-09-25T03:33:23.806Z,5.27
2018-09-25T03:34:23.838Z,5.27
2018-09-25T03:35:23.782Z,5.29
2018-09-25T03:36:23.778Z,5.32
2018-09-25T03:37:23.768Z,5.29
2018-09-25T03:38:23.758Z,5.34
2018-09-25T03:39:23.740Z,5.32
2018-09-25T03:40:23.786Z,5.29
2018-09-25T03:41:23.719Z,5.29
2018-09-25T03:42:23.737Z,5.27
2018-09-25T03:43:23.702Z,5.30
2018-09-25T03:44:23.767Z,5.16
2018-09-25T03:45:23.680Z,5.18
2018-09-25T03:46:23.710Z,5.29
2018-09-25T03:47:23.647Z,5.18
2018-09-25T03:48:23.672Z,5.15
2018-09-25T03:49:23.639Z,5.16
2018-09-25T03:50:23.615Z,5.16
2018-09-25T03:51:23.603Z,5.14
2018-09-25T03:52:23.622Z,5.22
2018-09-25T03:53:23.588Z,5.11
2018-09-25T03:54:23.587Z,5.25
2018-09-25T03:55:23.592Z,5.19
2018-09-25T03:56:23.560Z,5.22
2018-09-25T03:57:23.547Z,5.11
2018-09-25T03:58:23.567Z,5.16
2018-09-25T03:59:23.541Z,5.07
2018-09-25T04:00:23.549Z,5.15
2018-09-25T04:01:23.615Z,5.16
2018-09-25T04:02:23.491Z,5.15
2018-09-25T04:03:23.497Z,5.09
2018-09-25T04:04:23.539Z,5.14
2018-09-25T04:05:23.453Z,5.12
2018-09-25T04:06:23.458Z,5.11
2018-09-25T04:07:23.483Z,5.18
2018-09-25T04:08:23.435Z,5.14
2018-09-25T04:09:23.458Z,5.16
2018-09-25T04:10:23.467Z,5.04
2018-09-25T04:11:23.398Z,5.12
2018-09-25T04:12:23.371Z,5.12
2018-09-25T04:13:23.359Z,5.15
2018-09-25T04:14:23.462Z,5.15
2018-09-25T04:15:23.380Z,5.15
2018-09-25T04:16:23.432Z,5.07
2018-09-25T04:17:23.322Z,5.07
2018-09-25T04:18:23.315Z,5.04
2018-09-25T04:19:23.305Z,5.04
2018-09-25T04:20:23.287Z,5.12
2018-09-25T04:21:23.288Z,5.04
2018-09-25T04:22:23.296Z,5.09
2018-09-25T04:23:23.253Z,5.07
2018-09-25T04:24:23.266Z,5.03
2018-09-25T04:25:23.246Z,5.00
2018-09-25T04:26:23.224Z,5.03
2018-09-25T04:27:23.211Z,4.93
2018-09-25T04:28:23.326Z,5.01
2018-09-25T04:29:23.198Z,5.00
2018-09-25T04:30:23.178Z,5.01
2018-09-25T04:31:23.168Z,4.88
2018-09-25T04:32:23.163Z,4.88
2018-09-25T04:33:23.139Z,4.93
2018-09-25T04:34:23.198Z,4.97
2018-09-25T04:35:23.120Z,4.96
2018-09-25T04:36:23.105Z,5.03
2018-09-25T04:37:23.111Z,4.94
2018-09-25T04:38:23.098Z,4.83
2018-09-25T04:39:23.074Z,4.98
2018-09-25T04:40:23.099Z,4.98
2018-09-25T04:41:23.049Z,4.82
2018-09-25T04:42:23.041Z,4.86
2018-09-25T04:43:23.051Z,4.89
2018-09-25T04:44:23.022Z,4.86
2018-09-25T04:45:23.224Z,4.83
2018-09-25T04:46:23.323Z,4.79
2018-09-25T04:47:22.985Z,4.79
2018-09-25T04:48:23.157Z,4.79
2018-09-25T04:49:22.966Z,4.93
2018-09-25T04:50:22.952Z,4.89
2018-09-25T04:51:22.940Z,4.89
2018-09-25T04:52:22.969Z,4.82
2018-09-25T04:53:22.923Z,4.82
2018-09-25T04:54:22.917Z,4.85
2018-09-25T04:55:22.897Z,4.86
2018-09-25T04:56:22.884Z,4.79
2018-09-25T04:57:22.887Z,4.85
2018-09-25T04:58:22.909Z,4.82
2018-09-25T04:59:22.852Z,4.79
2018-09-25T05:00:22.838Z,4.85
2018-09-25T05:01:22.833Z,4.82
2018-09-25T05:02:22.816Z,4.82
2018-09-25T05:03:22.810Z,4.88
2018-09-25T05:04:22.857Z,4.82
2018-09-25T05:05:22.784Z,4.88
2018-09-25T05:06:22.771Z,4.86
2018-09-25T05:07:22.760Z,4.85
2018-09-25T05:08:22.753Z,4.88
2018-09-25T05:09:22.738Z,4.82
2018-09-25T05:10:22.864Z,4.78
2018-09-25T05:11:22.717Z,4.82
2018-09-25T05:12:22.706Z,4.82
2018-09-25T05:13:22.694Z,4.85
2018-09-25T05:14:22.687Z,4.86
2018-09-25T05:15:22.674Z,4.82
2018-09-25T05:16:22.707Z,4.88
2018-09-25T05:17:22.666Z,4.75
2018-09-25T05:18:22.645Z,4.75
2018-09-25T05:19:22.631Z,4.79
2018-09-25T05:20:22.633Z,4.75
2018-09-25T05:21:22.611Z,4.79
2018-09-25T05:22:22.632Z,4.78
2018-09-25T05:23:22.592Z,4.77
2018-09-25T05:24:22.572Z,4.77
2018-09-25T05:25:22.578Z,4.75
2018-09-25T05:26:22.566Z,4.72
2018-09-25T05:27:22.540Z,4.69
2018-09-25T05:28:22.568Z,4.77
2018-09-25T05:29:22.518Z,4.75
2018-09-25T05:30:22.507Z,4.86
2018-09-25T05:31:22.502Z,4.79
2018-09-25T05:32:22.492Z,4.74
2018-09-25T05:33:22.491Z,4.75
2018-09-25T05:34:22.507Z,4.75
2018-09-25T05:35:22.465Z,4.86
2018-09-25T05:36:22.444Z,4.85
2018-09-25T05:37:22.428Z,4.79
2018-09-25T05:38:22.424Z,4.83
2018-09-25T05:39:22.413Z,4.78
2018-09-25T05:40:22.435Z,4.85
2018-09-25T05:41:22.393Z,4.85
2018-09-25T05:42:22.383Z,4.85
2018-09-25T05:43:22.375Z,4.85
2018-09-25T05:44:22.381Z,4.83
2018-09-25T05:45:22.355Z,4.83
2018-09-25T05:46:22.370Z,4.88
2018-09-25T05:47:22.318Z,4.86
2018-09-25T05:48:22.366Z,4.83
2018-09-25T05:49:22.297Z,4.85
2018-09-25T05:50:22.291Z,4.94
2018-09-25T05:51:22.274Z,4.94
2018-09-25T05:52:22.298Z,4.94
2018-09-25T05:53:22.277Z,4.98
2018-09-25T05:54:22.243Z,4.93
2018-09-25T05:55:22.243Z,5.01
2018-09-25T05:56:22.219Z,4.93
2018-09-25T05:57:22.217Z,4.93
2018-09-25T05:58:22.233Z,5.01
2018-09-25T05:59:22.192Z,4.91
2018-09-25T06:00:22.177Z,5.00
2018-09-25T06:01:22.185Z,5.00
2018-09-25T06:02:22.207Z,4.93
2018-09-25T06:03:22.141Z,5.04
2018-09-25T06:04:22.191Z,5.00
2018-09-25T06:05:22.131Z,5.11
2018-09-25T06:06:22.124Z,5.11
2018-09-25T06:07:22.135Z,5.14
2018-09-25T06:08:22.088Z,5.14
2018-09-25T06:09:22.124Z,5.18
2018-09-25T06:10:22.102Z,5.11
2018-09-25T06:11:22.056Z,5.15
2018-09-25T06:12:22.055Z,5.18
2018-09-25T06:13:22.035Z,5.25
2018-09-25T06:14:22.019Z,5.29
2018-09-25T06:15:22.012Z,5.37
2018-09-25T06:16:22.043Z,5.25
2018-09-25T06:17:21.995Z,5.30
2018-09-25T06:18:21.975Z,5.39
2018-09-25T06:19:21.974Z,5.39
2018-09-25T06:20:21.956Z,5.39
2018-09-25T06:21:21.946Z,5.47
2018-09-25T06:22:21.973Z,5.39
2018-09-25T06:23:21.932Z,5.39
2018-09-25T06:24:21.911Z,5.47
2018-09-25T06:25:21.903Z,5.58
2018-09-25T06:26:21.886Z,5.54
2018-09-25T06:27:21.876Z,5.54
2018-09-25T06:28:21.902Z,5.58
2018-09-25T06:29:21.876Z,5.58
2018-09-25T06:30:21.844Z,5.65
2018-09-25T06:31:21.833Z,5.69
2018-09-25T06:32:21.824Z,5.70
2018-09-25T06:33:21.814Z,5.77
2018-09-25T06:34:21.837Z,5.73
2018-09-25T06:35:21.803Z,5.77
2018-09-25T06:36:21.779Z,5.88
2018-09-25T06:37:21.829Z,5.93
2018-09-25T06:38:21.755Z,6.00
2018-09-25T06:39:21.747Z,5.95
2018-09-25T06:40:21.780Z,5.98
2018-09-25T06:41:21.740Z,6.08
2018-09-25T06:42:21.719Z,6.05
2018-09-25T06:43:21.703Z,6.21
2018-09-25T06:44:21.689Z,6.13
2018-09-25T06:45:21.678Z,6.21
2018-09-25T06:46:21.766Z,6.21
2018-09-25T06:47:21.712Z,6.31
2018-09-25T06:48:21.656Z,6.32
2018-09-25T06:49:21.639Z,6.40
2018-09-25T06:50:21.624Z,6.34
2018-09-25T06:51:21.616Z,6.52
2018-09-25T06:52:21.643Z,6.55
2018-09-25T06:53:21.632Z,6.57
2018-09-25T06:54:21.604Z,6.56
2018-09-25T06:55:21.600Z,6.65
2018-09-25T06:56:21.564Z,6.71
2018-09-25T06:57:21.546Z,6.70
2018-09-25T06:58:21.575Z,6.74
2018-09-25T06:59:21.524Z,6.78
2018-09-25T07:00:21.524Z,6.85
2018-09-25T07:01:21.505Z,6.89
2018-09-25T07:02:21.490Z,6.89
2018-09-25T07:03:21.480Z,7.00
2018-09-25T07:04:21.502Z,6.99
2018-09-25T07:05:21.458Z,7.04
2018-09-25T07:06:21.465Z,7.13
2018-09-25T07:07:21.436Z,7.21
2018-09-25T07:08:21.425Z,7.18
2018-09-25T07:09:21.413Z,7.19
2018-09-25T07:10:21.571Z,7.26
2018-09-25T07:11:21.393Z,7.34
2018-09-25T07:12:21.388Z,7.44
2018-09-25T07:13:21.383Z,7.47
2018-09-25T07:14:21.373Z,7.50
2018-09-25T07:15:21.356Z,7.58
2018-09-25T07:16:21.400Z,7.62
2018-09-25T07:17:21.330Z,7.76
2018-09-25T07:18:21.318Z,7.74
2018-09-25T07:19:21.311Z,7.84
2018-09-25T07:20:21.291Z,7.88
2018-09-25T07:21:21.301Z,8.01
2018-09-25T07:22:21.309Z,8.04
2018-09-25T07:23:21.258Z,7.98
2018-09-25T07:24:21.246Z,8.01
2018-09-25T07:25:21.241Z,8.02
2018-09-25T07:26:21.231Z,7.98
2018-09-25T07:27:21.221Z,8.16
2018-09-25T07:28:21.249Z,8.20
2018-09-25T07:29:21.198Z,8.20
2018-09-25T07:30:21.179Z,8.21
2018-09-25T07:31:21.172Z,8.24
2018-09-25T07:32:21.159Z,8.28
2018-09-25T07:33:21.146Z,8.34
2018-09-25T07:34:21.196Z,8.28
2018-09-25T07:35:21.132Z,8.35
2018-09-25T07:36:21.123Z,8.46
2018-09-25T07:37:21.101Z,8.53
2018-09-25T07:38:21.103Z,8.50
2018-09-25T07:39:21.084Z,8.57
2018-09-25T07:40:21.115Z,8.56
2018-09-25T07:41:21.065Z,8.53
2018-09-25T07:42:21.058Z,8.65
2018-09-25T07:43:21.078Z,8.67
2018-09-25T07:44:21.030Z,8.70
2018-09-25T07:45:21.017Z,8.78
2018-09-25T07:46:21.041Z,8.83
2018-09-25T07:47:21.004Z,8.89
2018-09-25T07:48:21.148Z,8.95
2018-09-25T07:49:20.984Z,9.01
2018-09-25T07:50:21.027Z,9.06
2018-09-25T07:51:20.960Z,9.04
2018-09-25T07:52:21.014Z,9.22
2018-09-25T07:53:20.930Z,9.22
2018-09-25T07:54:20.940Z,9.30
2018-09-25T07:55:20.960Z,9.27
2018-09-25T07:56:20.915Z,9.36
2018-09-25T07:57:20.891Z,9.47
2018-09-25T07:58:20.907Z,9.44
2018-09-25T07:59:20.874Z,9.54
2018-09-25T08:00:20.890Z,9.54
2018-09-25T08:01:20.840Z,9.59
2018-09-25T08:02:20.828Z,9.65
2018-09-25T08:03:20.831Z,9.60
2018-09-25T08:04:20.840Z,9.59
2018-09-25T08:05:20.790Z,9.59
2018-09-25T08:06:20.806Z,9.69
2018-09-25T08:07:20.784Z,9.62
2018-09-25T08:08:20.767Z,9.72
2018-09-25T08:09:20.780Z,9.80
2018-09-25T08:10:20.788Z,9.75
2018-09-25T08:11:20.725Z,9.81
2018-09-25T08:12:20.748Z,9.84
2018-09-25T08:13:20.706Z,9.83
2018-09-25T08:14:20.689Z,9.84
2018-09-25T08:15:20.713Z,9.90
2018-09-25T08:16:20.707Z,9.88
2018-09-25T08:17:20.662Z,9.96
2018-09-25T08:18:20.650Z,10.05
2018-09-25T08:19:20.652Z,10.06
2018-09-25T08:20:20.634Z,10.03
2018-09-25T08:21:20.634Z,10.16
2018-09-25T08:22:20.638Z,10.21
2018-09-25T08:23:20.601Z,10.31
2018-09-25T08:24:20.586Z,10.30
2018-09-25T08:25:20.573Z,10.36
2018-09-25T08:26:20.565Z,10.43
2018-09-25T08:27:20.547Z,10.46
2018-09-25T08:28:20.586Z,10.52
2018-09-25T08:29:20.585Z,10.49
2018-09-25T08:30:20.567Z,10.48
2018-09-25T08:31:20.512Z,10.54
2018-09-25T08:32:20.499Z,10.58
2018-09-25T08:33:20.512Z,10.60
2018-09-25T08:34:20.513Z,10.55
2018-09-25T08:35:20.464Z,10.60
2018-09-25T08:36:20.479Z,10.67
2018-09-25T08:37:20.476Z,10.65
2018-09-25T08:38:20.434Z,10.64
2018-09-25T08:39:20.539Z,10.78
2018-09-25T08:40:20.452Z,10.61
2018-09-25T08:41:20.396Z,10.64
2018-09-25T08:42:20.418Z,10.67
2018-09-25T08:43:20.427Z,10.70
2018-09-25T08:44:20.360Z,10.76
2018-09-25T08:45:20.351Z,10.93
2018-09-25T08:46:20.383Z,10.90
2018-09-25T08:47:20.328Z,10.95
2018-09-25T08:48:20.336Z,11.00
2018-09-25T08:49:20.315Z,10.97
2018-09-25T08:50:20.305Z,11.04
2018-09-25T08:51:20.330Z,11.15
2018-09-25T08:52:20.313Z,11.11
2018-09-25T08:53:20.293Z,11.12
2018-09-25T08:54:20.268Z,11.11
2018-09-25T08:55:20.250Z,11.19
2018-09-25T08:56:20.236Z,11.36
2018-09-25T08:57:20.228Z,11.38
2018-09-25T08:58:20.276Z,11.40
2018-09-25T08:59:20.211Z,11.46
2018-09-25T09:00:20.194Z,11.45
2018-09-25T09:01:20.176Z,11.40
2018-09-25T09:02:20.165Z,11.46
2018-09-25T09:03:20.153Z,11.43
2018-09-25T09:04:20.200Z,11.45
2018-09-25T09:05:20.136Z,11.43
2018-09-25T09:06:20.125Z,11.49
2018-09-25T09:07:20.112Z,11.52
2018-09-25T09:08:20.204Z,11.58
2018-09-25T09:09:20.096Z,11.55
2018-09-25T09:10:20.117Z,11.64
2018-09-25T09:11:20.088Z,11.64
2018-09-25T09:12:20.068Z,11.80
2018-09-25T09:13:20.055Z,11.88
2018-09-25T09:14:20.064Z,11.96
2018-09-25T09:15:20.051Z,11.97
2018-09-25T09:16:20.050Z,12.03
2018-09-25T09:17:20.021Z,12.07
2018-09-25T09:18:19.989Z,12.00
2018-09-25T09:19:19.974Z,11.95
2018-09-25T09:20:19.962Z,11.96
2018-09-25T09:21:19.955Z,11.97
2018-09-25T09:22:19.981Z,11.96
2018-09-25T09:23:19.952Z,12.14
2018-09-25T09:24:19.928Z,12.13
2018-09-25T09:25:19.964Z,12.17
2018-09-25T09:26:19.904Z,12.23
2018-09-25T09:27:19.892Z,12.21
2018-09-25T09:28:19.912Z,12.38
2018-09-25T09:29:19.894Z,12.36
2018-09-25T09:30:19.852Z,12.50
2018-09-25T09:31:19.840Z,12.48
2018-09-25T09:32:19.839Z,12.53
2018-09-25T09:33:19.825Z,12.44
2018-09-25T09:34:19.854Z,12.50
2018-09-25T09:35:19.801Z,12.48
2018-09-25T09:36:19.784Z,12.61
2018-09-25T09:37:19.774Z,12.58
2018-09-25T09:38:19.761Z,12.59
2018-09-25T09:39:19.755Z,12.58
2018-09-25T09:40:19.797Z,12.63
2018-09-25T09:41:19.809Z,12.58
2018-09-25T09:42:19.713Z,12.66
2018-09-25T09:43:19.715Z,12.63
2018-09-25T09:44:19.692Z,12.66
2018-09-25T09:45:19.688Z,12.58
2018-09-25T09:46:19.718Z,12.55
2018-09-25T09:47:19.669Z,12.61
2018-09-25T09:48:19.656Z,12.61
2018-09-25T09:49:19.718Z,12.62
2018-09-25T09:50:19.664Z,12.71
2018-09-25T09:51:19.621Z,12.71
2018-09-25T09:52:19.635Z,12.63
2018-09-25T09:53:19.599Z,12.71
2018-09-25T09:54:19.602Z,12.80
2018-09-25T09:55:19.569Z,12.88
2018-09-25T09:56:19.643Z,12.77
2018-09-25T09:57:19.549Z,12.87
2018-09-25T09:58:19.579Z,12.86
2018-09-25T09:59:19.526Z,12.88
2018-09-25T10:00:19.528Z,12.80
2018-09-25T10:01:19.509Z,12.96
2018-09-25T10:02:19.491Z,13.08
2018-09-25T10:03:19.486Z,13.06
2018-09-25T10:04:19.500Z,13.01
2018-09-25T10:05:19.468Z,13.17
2018-09-25T10:06:19.487Z,13.27
2018-09-25T10:07:19.518Z,13.29
2018-09-25T10:08:19.428Z,13.53
2018-09-25T10:09:19.426Z,13.53
2018-09-25T10:10:19.451Z,13.63
2018-09-25T10:11:19.388Z,13.65
2018-09-25T10:12:19.422Z,13.51
2018-09-25T10:13:19.369Z,13.64
2018-09-25T10:14:19.358Z,13.45
2018-09-25T10:15:19.371Z,13.57
2018-09-25T10:16:19.380Z,13.72
2018-09-25T10:17:19.326Z,13.82
2018-09-25T10:18:19.332Z,13.85
2018-09-25T10:19:19.308Z,13.82
2018-09-25T10:20:19.292Z,13.90
2018-09-25T10:21:19.275Z,14.00
2018-09-25T10:22:19.302Z,14.08
2018-09-25T10:23:19.291Z,14.09
2018-09-25T10:24:19.244Z,14.16
2018-09-25T10:25:19.230Z,14.18
2018-09-25T10:26:19.256Z,14.23
2018-09-25T10:27:19.264Z,14.27
2018-09-25T10:28:19.243Z,14.44
2018-09-25T10:29:19.184Z,14.45
2018-09-25T10:30:19.187Z,14.53
2018-09-25T10:31:19.163Z,14.41
2018-09-25T10:32:19.151Z,14.44
2018-09-25T10:33:19.145Z,14.46
2018-09-25T10:34:19.239Z,14.66
2018-09-25T10:35:19.127Z,14.63
2018-09-25T10:36:19.111Z,14.67
2018-09-25T10:37:19.101Z,14.77
2018-09-25T10:38:19.100Z,14.79
2018-09-25T10:39:19.075Z,14.67
2018-09-25T10:40:19.130Z,14.73
2018-09-25T10:41:19.056Z,14.90
2018-09-25T10:42:19.040Z,14.97
2018-09-25T10:43:19.035Z,15.04
2018-09-25T10:44:19.021Z,15.01
2018-09-25T10:45:19.026Z,15.01
2018-09-25T10:46:19.058Z,15.08
2018-09-25T10:47:19.508Z,15.19
2018-09-25T10:48:18.987Z,15.17
2018-09-25T10:49:18.967Z,15.12
2018-09-25T10:50:18.976Z,15.22
2018-09-25T10:51:18.943Z,15.17
2018-09-25T10:52:19.009Z,15.08
2018-09-25T10:53:18.920Z,15.03
2018-09-25T10:54:18.926Z,14.95
2018-09-25T10:55:18.928Z,15.08
2018-09-25T10:56:19.062Z,15.07
2018-09-25T10:57:18.875Z,15.10
2018-09-25T10:58:18.918Z,15.14
2018-09-25T10:59:18.859Z,15.15
2018-09-25T11:00:18.842Z,14.90
2018-09-25T11:01:18.839Z,14.69
2018-09-25T11:02:18.819Z,14.49
2018-09-25T11:03:18.946Z,14.34
2018-09-25T11:04:18.842Z,14.36
2018-09-25T11:05:18.804Z,14.33
2018-09-25T11:06:18.783Z,14.38
2018-09-25T11:07:18.767Z,14.37
2018-09-25T11:08:18.753Z,14.33
2018-09-25T11:09:18.739Z,14.40
2018-09-25T11:10:18.773Z,14.34
2018-09-25T11:11:18.747Z,14.48
2018-09-25T11:12:18.710Z,14.56
2018-09-25T11:13:18.698Z,14.79
2018-09-25T11:14:18.687Z,14.99
2018-09-25T11:15:18.677Z,15.05
2018-09-25T11:16:18.700Z,15.05
2018-09-25T11:17:18.663Z,15.14
2018-09-25T11:18:18.650Z,15.23
2018-09-25T11:19:18.628Z,15.27
2018-09-25T11:20:18.618Z,15.30
2018-09-25T11:21:18.608Z,15.47
2018-09-25T11:22:18.758Z,15.47
2018-09-25T11:23:18.626Z,15.60
2018-09-25T11:24:18.698Z,15.69
2018-09-25T11:25:18.719Z,15.66
2018-09-25T11:26:18.550Z,15.63
2018-09-25T11:27:18.544Z,15.66
2018-09-25T11:28:18.613Z,15.40
2018-09-25T11:29:18.521Z,15.26
2018-09-25T11:30:18.516Z,15.19
2018-09-25T11:31:18.497Z,15.12
2018-09-25T11:32:18.498Z,15.05
2018-09-25T11:33:18.474Z,14.93
2018-09-25T11:34:18.495Z,14.89
2018-09-25T11:35:18.502Z,14.79
2018-09-25T11:36:18.441Z,14.70
2018-09-25T11:37:18.435Z,14.73
2018-09-25T11:38:18.420Z,14.70
2018-09-25T11:39:18.418Z,14.49
2018-09-25T11:40:18.434Z,14.36
2018-09-25T11:41:18.390Z,14.31
2018-09-25T11:42:18.376Z,14.26
2018-09-25T11:43:18.359Z,14.31
2018-09-25T11:44:18.344Z,14.21
2018-09-25T11:45:18.352Z,14.09
2018-09-25T11:46:18.383Z,14.12
2018-09-25T11:47:18.313Z,14.15
2018-09-25T11:48:18.321Z,14.23
2018-09-25T11:49:18.290Z,14.21
2018-09-25T11:50:18.292Z,14.33
2018-09-25T11:51:18.293Z,14.15
2018-09-25T11:52:18.297Z,14.23
2018-09-25T11:53:18.247Z,14.21
2018-09-25T11:54:18.250Z,14.30
2018-09-25T11:55:18.223Z,14.37
2018-09-25T11:56:18.254Z,14.45
2018-09-25T11:57:18.202Z,14.46
2018-09-25T11:58:18.276Z,14.70
2018-09-25T11:59:18.177Z,14.86
2018-09-25T12:00:18.178Z,14.92
2018-09-25T12:01:18.162Z,14.86
2018-09-25T12:02:18.254Z,14.96
2018-09-25T12:03:18.139Z,15.01
2018-09-25T12:04:18.163Z,15.15
2018-09-25T12:05:18.110Z,15.17
2018-09-25T12:06:18.099Z,15.14
2018-09-25T12:07:18.110Z,15.23
2018-09-25T12:08:18.080Z,15.23
2018-09-25T12:09:18.065Z,15.33
2018-09-25T12:10:18.088Z,15.80
2018-09-25T12:11:18.046Z,15.99
2018-09-25T12:12:18.036Z,15.96
2018-09-25T12:13:18.044Z,15.77
2018-09-25T12:14:18.049Z,15.83
2018-09-25T12:15:18.019Z,15.66
2018-09-25T12:16:18.033Z,15.62
2018-09-25T12:17:17.991Z,15.48
2018-09-25T12:18:17.971Z,15.56
2018-09-25T12:19:17.957Z,15.47
2018-09-25T12:20:17.978Z,15.44
2018-09-25T12:21:17.934Z,15.44
2018-09-25T12:22:17.961Z,15.48
2018-09-25T12:23:17.930Z,15.36
2018-09-25T12:24:17.975Z,15.66
2018-09-25T12:25:17.906Z,16.40
2018-09-25T12:26:17.912Z,17.30
2018-09-25T12:27:17.868Z,17.83
2018-09-25T12:28:17.898Z,18.27
2018-09-25T12:29:17.854Z,18.82
2018-09-25T12:30:17.841Z,19.31
2018-09-25T12:31:17.824Z,19.78
2018-09-25T12:32:17.814Z,19.93
2018-09-25T12:33:17.800Z,19.87
2018-09-25T12:34:17.831Z,20.09
2018-09-25T12:35:17.785Z,20.08
2018-09-25T12:36:17.761Z,20.15
2018-09-25T12:37:17.756Z,20.17
2018-09-25T12:38:17.760Z,19.68
2018-09-25T12:39:17.731Z,19.59
2018-09-25T12:40:17.761Z,19.67
2018-09-25T12:41:17.712Z,20.14
2018-09-25T12:42:17.697Z,20.05
2018-09-25T12:43:17.691Z,19.72
2018-09-25T12:44:17.676Z,19.74
2018-09-25T12:45:17.690Z,20.02
2018-09-25T12:46:17.689Z,20.23
2018-09-25T12:47:17.884Z,20.53
2018-09-25T12:48:17.631Z,20.77
2018-09-25T12:49:17.621Z,20.80
2018-09-25T12:50:17.615Z,20.74
2018-09-25T12:51:17.615Z,20.49
2018-09-25T12:52:17.622Z,20.48
2018-09-25T12:53:17.583Z,20.27
2018-09-25T12:54:17.569Z,20.18
2018-09-25T12:55:17.557Z,20.08
2018-09-25T12:56:17.556Z,20.27
2018-09-25T12:57:17.542Z,20.55
2018-09-25T12:58:17.601Z,20.00
2018-09-25T12:59:17.538Z,19.23
2018-09-25T13:00:17.511Z,18.57
2018-09-25T13:01:17.525Z,18.78
2018-09-25T13:02:17.477Z,19.59
2018-09-25T13:03:17.472Z,20.08
2018-09-25T13:04:17.526Z,20.11
2018-09-25T13:05:17.452Z,20.09
2018-09-25T13:06:17.452Z,20.26
2018-09-25T13:07:17.427Z,20.46
2018-09-25T13:08:17.473Z,20.88